createdAt,value
2018-04-14T00:05:36.969Z,82.31
2018-04-14T00:08:05.326Z,82.12
2018-04-14T00:10:32.853Z,81.84
2018-04-14T00:13:00.350Z,81.99
2018-04-14T00:15:27.904Z,81.80
2018-04-14T00:17:55.381Z,81.95
2018-04-14T00:20:22.885Z,82.31
2018-04-14T00:22:50.414Z,82.24
2018-04-14T00:25:18.888Z,82.40
2018-04-14T00:27:46.641Z,82.66
2018-04-14T00:30:14.907Z,83.01
2018-04-14T00:32:42.443Z,83.06
2018-04-14T00:35:10.589Z,83.10
2018-04-14T00:37:38.147Z,82.97
2018-04-14T00:40:05.781Z,83.13
2018-04-14T00:42:33.437Z,83.49
2018-04-14T00:45:01.336Z,83.69
2018-04-14T00:47:28.818Z,83.87
2018-04-14T00:49:56.357Z,83.84
2018-04-14T00:52:43.159Z,83.79
2018-04-14T00:55:12.032Z,83.59
2018-04-14T00:57:39.613Z,83.96
2018-04-14T01:00:08.042Z,84.17
2018-04-14T01:02:41.533Z,84.56
2018-04-14T01:05:09.199Z,84.73
2018-04-14T01:07:36.871Z,84.83
2018-04-14T01:10:04.388Z,84.83
2018-04-14T01:12:36.921Z,84.90
2018-04-14T01:15:04.382Z,84.71
2018-04-14T01:17:31.871Z,84.87
2018-04-14T01:19:59.320Z,84.42
2018-04-14T01:25:19.691Z,84.34
2018-04-14T01:27:47.140Z,84.41
2018-04-14T01:30:14.596Z,84.91
2018-04-14T01:32:42.059Z,85.16
2018-04-14T01:35:09.528Z,85.36
2018-04-14T01:37:37.006Z,84.99
2018-04-14T01:40:04.527Z,84.59
2018-04-14T01:42:32.164Z,84.18
2018-04-14T01:44:59.908Z,84.30
2018-04-14T01:47:27.444Z,84.55
2018-04-14T01:49:55.608Z,84.21
2018-04-14T01:55:15.474Z,84.68
2018-04-14T01:57:43.810Z,84.84
2018-04-14T02:00:11.363Z,84.60
2018-04-14T02:02:38.851Z,84.90
2018-04-14T02:05:06.335Z,84.48
2018-04-14T02:07:33.796Z,84.43
2018-04-14T02:10:01.557Z,84.13
2018-04-14T02:12:38.607Z,84.44
2018-04-14T02:15:06.096Z,84.45
2018-04-14T02:17:33.567Z,85.00
2018-04-14T02:20:01.017Z,85.14
2018-04-14T02:22:28.853Z,85.72
2018-04-14T02:24:56.303Z,85.69
2018-04-14T02:27:23.784Z,85.78
2018-04-14T02:29:51.201Z,86.10
2018-04-14T02:32:18.658Z,85.69
2018-04-14T02:34:46.229Z,85.75
2018-04-14T02:37:13.789Z,85.68
2018-04-14T02:39:41.338Z,85.66
2018-04-14T02:42:08.789Z,86.03
2018-04-14T02:44:36.317Z,86.04
2018-04-14T02:47:03.827Z,85.82
2018-04-14T02:49:31.323Z,85.46
2018-04-14T02:51:58.777Z,85.23
2018-04-14T02:54:26.295Z,85.15
2018-04-14T02:56:53.738Z,85.13
2018-04-14T02:59:21.265Z,85.14
2018-04-14T03:01:48.711Z,84.92
2018-04-14T03:04:16.187Z,84.98
2018-04-14T03:06:43.651Z,84.76
2018-04-14T03:09:11.163Z,84.76
2018-04-14T03:11:38.667Z,84.81
2018-04-14T03:14:06.125Z,85.04
2018-04-14T03:16:33.601Z,84.57
2018-04-14T03:19:01.112Z,84.53
2018-04-14T03:21:28.571Z,84.18
2018-04-14T03:23:56.476Z,83.84
2018-04-14T03:26:23.959Z,83.56
2018-04-14T03:28:52.303Z,83.46
2018-04-14T03:31:19.854Z,83.48
2018-04-14T03:33:47.405Z,83.57
2018-04-14T03:36:14.951Z,83.42
2018-04-14T03:38:42.933Z,83.47
2018-04-14T03:41:10.503Z,83.43
2018-04-14T03:43:37.969Z,83.17
2018-04-14T03:46:06.323Z,83.37
2018-04-14T03:48:33.885Z,83.14
2018-04-14T03:51:01.370Z,82.26
2018-04-14T03:53:28.887Z,82.29
2018-04-14T03:55:56.784Z,81.80
2018-04-14T03:58:24.301Z,81.92
2018-04-14T04:00:51.789Z,81.97
2018-04-14T04:03:19.331Z,82.21
2018-04-14T04:05:46.770Z,82.39
2018-04-14T04:08:14.490Z,82.77
2018-04-14T04:10:41.949Z,82.60
2018-04-14T04:13:09.675Z,83.21
2018-04-14T04:15:37.151Z,83.44
2018-04-14T04:18:04.609Z,83.29
2018-04-14T04:20:56.791Z,83.46
2018-04-14T04:23:36.030Z,83.54
2018-04-14T04:26:03.522Z,83.41
2018-04-14T04:28:30.976Z,83.31
2018-04-14T04:30:58.477Z,83.37
2018-04-14T04:33:25.932Z,83.20
2018-04-14T04:35:53.387Z,82.93
2018-04-14T04:38:20.846Z,83.20
2018-04-14T04:40:48.407Z,83.55
2018-04-14T04:43:15.908Z,83.42
2018-04-14T04:45:43.413Z,83.32
2018-04-14T04:48:10.942Z,83.06
2018-04-14T04:50:38.417Z,82.89
2018-04-14T04:53:15.533Z,82.99
2018-04-14T04:55:43.019Z,82.70
2018-04-14T04:58:11.141Z,82.64
2018-04-14T05:00:38.721Z,82.86
2018-04-14T05:05:58.789Z,82.60
2018-04-14T05:08:26.258Z,82.57
2018-04-14T05:10:53.703Z,82.02
2018-04-14T05:13:21.201Z,82.38
2018-04-14T05:15:48.623Z,81.35
2018-04-14T05:18:16.089Z,81.45
2018-04-14T05:20:43.542Z,81.53
2018-04-14T05:23:15.941Z,81.18
2018-04-14T05:25:43.379Z,80.60
2018-04-14T05:28:10.876Z,80.63
2018-04-14T05:30:38.383Z,80.26
2018-04-14T05:33:05.872Z,80.20
2018-04-14T05:35:33.346Z,80.13
2018-04-14T05:38:00.833Z,79.75
2018-04-14T05:40:28.343Z,79.91
2018-04-14T05:42:55.871Z,79.69
2018-04-14T05:45:23.349Z,79.63
2018-04-14T05:47:51.145Z,79.19
2018-04-14T05:50:18.710Z,79.03
2018-04-14T05:52:46.163Z,79.16
2018-04-14T05:55:13.665Z,79.19
2018-04-14T05:57:41.143Z,78.80
2018-04-14T06:00:08.842Z,78.88
2018-04-14T06:02:36.291Z,78.10
2018-04-14T06:05:03.770Z,78.29
2018-04-14T06:07:31.234Z,77.83
2018-04-14T06:09:58.730Z,77.70
2018-04-14T06:12:26.195Z,78.07
2018-04-14T06:14:53.723Z,78.18
2018-04-14T06:17:21.164Z,77.83
2018-04-14T06:19:48.681Z,77.59
2018-04-14T06:22:16.224Z,77.32
2018-04-14T06:24:43.708Z,77.33
2018-04-14T06:27:11.234Z,77.41
2018-04-14T06:29:38.832Z,77.19
2018-04-14T06:32:06.424Z,76.44
2018-04-14T06:34:33.902Z,77.01
2018-04-14T06:37:01.404Z,76.73
2018-04-14T06:39:28.897Z,76.54
2018-04-14T06:41:56.417Z,76.32
2018-04-14T06:44:23.916Z,76.02
2018-04-14T06:46:51.368Z,75.35
2018-04-14T06:49:18.872Z,75.36
2018-04-14T06:51:46.335Z,75.00
2018-04-14T06:54:13.871Z,74.97
2018-04-14T06:56:41.410Z,74.70
2018-04-14T06:59:08.941Z,74.23
2018-04-14T07:01:36.522Z,74.26
2018-04-14T07:04:04.071Z,73.98
2018-04-14T07:06:31.607Z,73.68
2018-04-14T07:08:59.200Z,73.52
2018-04-14T07:11:26.714Z,73.10
2018-04-14T07:13:54.284Z,72.67
2018-04-14T07:16:21.784Z,72.40
2018-04-14T07:18:49.313Z,72.56
2018-04-14T07:21:16.790Z,72.59
2018-04-14T07:23:53.972Z,72.13
2018-04-14T07:26:21.483Z,71.94
2018-04-14T07:28:49.020Z,70.98
2018-04-14T07:31:16.494Z,70.43
2018-04-14T07:33:43.966Z,69.92
2018-04-14T07:36:11.468Z,69.16
2018-04-14T07:38:39.192Z,69.29
2018-04-14T07:41:06.698Z,69.17
2018-04-14T07:43:48.471Z,68.89
2018-04-14T07:46:15.949Z,68.41
2018-04-14T07:48:43.392Z,67.28
2018-04-14T07:51:11.137Z,67.08
2018-04-14T07:53:38.983Z,66.45
2018-04-14T07:56:06.531Z,66.44
2018-04-14T07:58:34.319Z,66.49
2018-04-14T08:01:01.897Z,65.70
2018-04-14T08:03:30.403Z,65.37
2018-04-14T08:05:57.974Z,64.94
2018-04-14T08:08:25.657Z,64.08
2018-04-14T08:10:53.224Z,63.78
2018-04-14T08:13:21.884Z,63.31
2018-04-14T08:15:49.650Z,62.85
2018-04-14T08:18:18.933Z,62.56
2018-04-14T08:20:46.682Z,61.97
2018-04-14T08:23:15.146Z,62.31
2018-04-14T08:25:42.611Z,62.95
2018-04-14T08:28:10.089Z,61.50
2018-04-14T08:30:37.591Z,61.73
2018-04-14T08:33:05.046Z,61.82
2018-04-14T08:35:32.502Z,61.68
2018-04-14T08:37:59.979Z,61.90
2018-04-14T08:40:27.496Z,61.76
2018-04-14T08:42:54.993Z,61.12
2018-04-14T08:45:22.445Z,61.32
2018-04-14T08:47:49.920Z,61.48
2018-04-14T08:50:17.404Z,61.66
2018-04-14T08:52:44.857Z,61.05
2018-04-14T08:55:12.362Z,61.22
2018-04-14T08:57:39.813Z,60.40
2018-04-14T09:00:07.252Z,59.75
2018-04-14T09:02:34.750Z,59.45
2018-04-14T09:05:02.202Z,59.38
2018-04-14T09:07:29.690Z,60.01
2018-04-14T09:09:57.166Z,59.84
2018-04-14T09:12:24.654Z,59.56
2018-04-14T09:14:52.154Z,58.89
2018-04-14T09:17:19.700Z,58.47
2018-04-14T09:19:47.146Z,57.70
2018-04-14T09:22:14.656Z,57.23
2018-04-14T09:24:42.108Z,56.84
2018-04-14T09:27:09.598Z,56.92
2018-04-14T09:29:37.050Z,56.84
2018-04-14T09:32:05.376Z,56.75
2018-04-14T09:34:32.984Z,56.04
2018-04-14T09:37:00.470Z,56.63
2018-04-14T09:39:27.945Z,56.15
2018-04-14T09:41:55.426Z,55.92
2018-04-14T09:44:22.876Z,55.16
2018-04-14T09:46:50.434Z,55.12
2018-04-14T09:49:17.918Z,55.17
2018-04-14T09:51:45.464Z,55.46
2018-04-14T09:54:12.968Z,54.33
2018-04-14T09:56:40.466Z,53.32
2018-04-14T09:59:08.043Z,52.79
2018-04-14T10:01:35.528Z,53.29
2018-04-14T10:04:03.177Z,50.48
2018-04-14T10:06:30.638Z,50.83
2018-04-14T10:08:58.222Z,50.14
2018-04-14T10:11:25.680Z,50.19
2018-04-14T10:13:53.150Z,49.50
2018-04-14T10:16:20.652Z,48.89
2018-04-14T10:18:48.067Z,47.99
2018-04-14T10:21:16.434Z,48.07
2018-04-14T10:23:43.957Z,47.52
2018-04-14T10:26:11.434Z,47.21
2018-04-14T10:28:39.038Z,46.98
2018-04-14T10:31:06.561Z,45.34
2018-04-14T10:33:34.128Z,43.85
2018-04-14T10:36:01.604Z,44.41
2018-04-14T10:38:29.217Z,44.69
2018-04-14T10:40:56.830Z,43.38
2018-04-14T10:43:24.450Z,43.35
2018-04-14T10:45:51.895Z,43.40
2018-04-14T10:48:19.347Z,41.62
2018-04-14T10:50:46.848Z,40.45
2018-04-14T10:53:14.361Z,39.96
2018-04-14T10:55:41.855Z,38.43
2018-04-14T10:58:09.354Z,38.07
2018-04-14T11:00:36.821Z,37.52
2018-04-14T11:03:04.298Z,37.04
2018-04-14T11:05:31.800Z,36.91
2018-04-14T11:07:59.384Z,35.52
2018-04-14T11:10:26.872Z,34.22
2018-04-14T11:12:54.384Z,32.46
2018-04-14T11:15:21.892Z,30.10
2018-04-14T11:17:49.377Z,27.71
2018-04-14T11:20:16.868Z,27.80
2018-04-14T11:22:43.895Z,26.18
2018-04-14T11:25:10.890Z,25.25
2018-04-14T11:27:38.346Z,24.40
2018-04-14T11:30:05.844Z,25.08
2018-04-14T11:32:33.300Z,28.52
2018-04-14T11:35:00.762Z,32.15
2018-04-14T11:37:28.223Z,32.65
2018-04-14T11:39:55.692Z,28.25
2018-04-14T11:42:23.168Z,26.12
2018-04-14T11:44:50.201Z,25.07
2018-04-14T11:47:17.657Z,24.93
2018-04-14T11:49:45.167Z,28.04
2018-04-14T11:52:24.575Z,31.94
2018-04-14T11:54:52.596Z,36.26
2018-04-14T11:57:20.868Z,38.30
2018-04-14T11:59:49.758Z,40.19
2018-04-14T12:02:17.398Z,37.52
2018-04-14T12:04:45.021Z,34.21
2018-04-14T12:07:12.575Z,29.61
2018-04-14T12:09:40.266Z,27.36
2018-04-14T12:12:07.876Z,27.68
2018-04-14T12:14:35.335Z,27.16
2018-04-14T12:17:02.800Z,27.99
2018-04-14T12:19:30.277Z,27.61
2018-04-14T12:21:57.788Z,26.64
2018-04-14T12:24:25.325Z,27.42
2018-04-14T12:26:52.789Z,27.62
2018-04-14T12:29:20.309Z,28.44
2018-04-14T12:31:47.784Z,29.28
2018-04-14T12:34:15.261Z,28.40
2018-04-14T12:36:42.707Z,26.37
2018-04-14T12:39:10.171Z,25.59
2018-04-14T12:41:37.676Z,26.64
2018-04-14T12:44:05.263Z,25.32
2018-04-14T12:46:32.737Z,24.29
2018-04-14T12:49:00.306Z,23.41
2018-04-14T12:51:27.794Z,23.19
2018-04-14T12:53:55.279Z,23.82
2018-04-14T12:56:22.830Z,23.85
2018-04-14T12:58:50.336Z,24.37
2018-04-14T13:01:17.791Z,25.20
2018-04-14T13:03:45.631Z,24.14
2018-04-14T13:06:13.099Z,25.20
2018-04-14T13:08:40.881Z,27.99
2018-04-14T13:11:08.393Z,30.36
2018-04-14T13:13:35.916Z,32.66
2018-04-14T13:16:04.530Z,34.89
2018-04-14T13:18:32.056Z,32.78
2018-04-14T13:20:59.577Z,32.33
2018-04-14T13:23:27.057Z,31.57
2018-04-14T13:25:54.611Z,31.36
2018-04-14T13:28:22.091Z,31.45
2018-04-14T13:30:49.619Z,31.24
2018-04-14T13:33:17.202Z,31.50
2018-04-14T13:35:45.323Z,31.95
2018-04-14T13:38:14.149Z,31.42
2018-04-14T13:40:41.721Z,31.18
2018-04-14T13:43:09.240Z,30.26
2018-04-14T13:45:36.711Z,31.12
2018-04-14T13:48:04.232Z,29.60
2018-04-14T13:50:31.771Z,30.05
2018-04-14T13:52:59.324Z,30.87
2018-04-14T13:55:26.803Z,29.82
2018-04-14T13:57:54.309Z,30.13
2018-04-14T14:00:21.754Z,30.09
2018-04-14T14:02:54.178Z,30.86
2018-04-14T14:05:21.684Z,30.33
2018-04-14T14:07:49.234Z,31.01
2018-04-14T14:10:17.566Z,30.59
2018-04-14T14:12:45.147Z,28.69
2018-04-14T14:15:13.067Z,28.42
2018-04-14T14:17:40.605Z,28.52
2018-04-14T14:20:08.156Z,28.66
2018-04-14T14:22:40.161Z,28.42
2018-04-14T14:25:07.783Z,27.56
2018-04-14T14:27:35.781Z,27.25
2018-04-14T14:30:03.295Z,27.83
2018-04-14T14:32:30.898Z,28.69
2018-04-14T14:34:58.386Z,28.11
2018-04-14T14:37:25.873Z,28.23
2018-04-14T14:39:53.402Z,28.63
2018-04-14T14:42:20.988Z,29.72
2018-04-14T14:44:48.584Z,29.68
2018-04-14T14:47:16.148Z,30.09
2018-04-14T14:49:43.625Z,30.70
2018-04-14T14:52:25.480Z,31.54
2018-04-14T14:54:53.006Z,31.76
2018-04-14T14:57:20.595Z,32.09
2018-04-14T14:59:48.102Z,32.30
2018-04-14T15:05:08.872Z,33.47
2018-04-14T15:07:36.517Z,33.56
2018-04-14T15:10:04.037Z,34.19
2018-04-14T15:12:31.531Z,34.65
2018-04-14T15:14:59.079Z,35.46
2018-04-14T15:17:26.691Z,36.04
2018-04-14T15:19:54.220Z,36.69
2018-04-14T15:22:26.733Z,37.24
2018-04-14T15:24:54.220Z,37.15
2018-04-14T15:27:21.728Z,36.91
2018-04-14T15:29:49.555Z,36.13
2018-04-14T15:32:17.177Z,36.06
2018-04-14T15:34:44.691Z,35.60
2018-04-14T15:37:12.181Z,35.31
2018-04-14T15:39:39.671Z,35.55
2018-04-14T15:42:07.250Z,35.88
2018-04-14T15:44:35.500Z,35.74
2018-04-14T15:47:03.062Z,35.31
2018-04-14T15:49:30.594Z,35.57
2018-04-14T15:51:58.936Z,36.12
2018-04-14T15:54:26.763Z,36.31
2018-04-14T15:56:54.226Z,36.66
2018-04-14T15:59:21.843Z,36.33
2018-04-14T16:01:49.452Z,36.56
2018-04-14T16:04:16.985Z,35.85
2018-04-14T16:06:44.550Z,36.12
2018-04-14T16:09:12.119Z,36.11
2018-04-14T16:11:39.636Z,36.24
2018-04-14T16:14:07.164Z,36.31
2018-04-14T16:16:34.856Z,36.39
2018-04-14T16:19:02.644Z,36.09
2018-04-14T16:21:30.150Z,36.13
2018-04-14T16:29:44.057Z,36.87
2018-04-14T16:32:12.118Z,37.15
2018-04-14T16:34:40.003Z,36.81
2018-04-14T16:37:07.677Z,36.53
2018-04-14T16:39:35.401Z,36.62
2018-04-14T16:42:03.135Z,36.71
2018-04-14T16:44:30.960Z,37.02
2018-04-14T16:46:58.456Z,37.55
2018-04-14T16:49:26.332Z,36.97
2018-04-14T16:51:53.858Z,37.27
2018-04-14T16:54:21.395Z,37.92
2018-04-14T16:56:48.947Z,38.33
2018-04-14T16:59:16.582Z,38.12
2018-04-14T17:01:44.089Z,37.90
2018-04-14T17:04:11.620Z,37.78
2018-04-14T17:06:39.106Z,37.88
2018-04-14T17:09:06.616Z,38.07
2018-04-14T17:11:34.122Z,38.29
2018-04-14T17:14:01.627Z,38.33
2018-04-14T17:16:29.168Z,38.66
2018-04-14T17:18:56.672Z,38.80
2018-04-14T17:21:24.283Z,39.03
2018-04-14T17:23:51.850Z,39.47
2018-04-14T17:26:19.378Z,39.58
2018-04-14T17:28:46.965Z,39.78
2018-04-14T17:31:14.450Z,39.74
2018-04-14T17:33:42.034Z,40.18
2018-04-14T17:36:09.592Z,40.14
2018-04-14T17:38:37.215Z,40.50
2018-04-14T17:41:04.737Z,40.60
2018-04-14T17:43:32.296Z,40.77
2018-04-14T17:45:59.779Z,41.07
2018-04-14T17:48:27.415Z,41.44
2018-04-14T17:50:54.988Z,41.40
2018-04-14T17:53:22.838Z,41.32
2018-04-14T17:55:50.300Z,41.70
2018-04-14T17:58:17.824Z,41.71
2018-04-14T18:00:45.320Z,41.68
2018-04-14T18:03:12.906Z,42.38
2018-04-14T18:05:40.737Z,42.25
2018-04-14T18:08:08.292Z,43.13
2018-04-14T18:10:35.916Z,42.90
2018-04-14T18:13:03.432Z,43.28
2018-04-14T18:15:30.995Z,42.73
2018-04-14T18:17:58.538Z,42.57
2018-04-14T18:20:26.476Z,42.97
2018-04-14T18:22:54.008Z,43.15
2018-04-14T18:25:21.523Z,43.13
2018-04-14T18:27:49.082Z,42.95
2018-04-14T18:30:16.573Z,43.59
2018-04-14T18:32:44.072Z,43.44
2018-04-14T18:35:11.645Z,43.52
2018-04-14T18:37:39.165Z,43.81
2018-04-14T18:40:06.675Z,44.10
2018-04-14T18:42:34.151Z,44.33
2018-04-14T18:45:01.834Z,44.22
2018-04-14T18:47:29.313Z,44.03
2018-04-14T18:49:56.995Z,43.97
2018-04-14T18:52:24.543Z,43.88
2018-04-14T18:54:52.344Z,43.79
2018-04-14T18:57:19.866Z,43.92
2018-04-14T18:59:48.131Z,44.11
2018-04-14T19:02:15.795Z,44.40
2018-04-14T19:04:43.368Z,44.47
2018-04-14T19:07:10.832Z,44.98
2018-04-14T19:09:38.409Z,44.94
2018-04-14T19:12:05.951Z,45.19
2018-04-14T19:14:33.509Z,45.31
2018-04-14T19:17:01.071Z,45.31
2018-04-14T19:19:28.607Z,45.43
2018-04-14T19:21:56.504Z,45.86
2018-04-14T19:24:23.988Z,46.14
2018-04-14T19:26:51.624Z,46.27
2018-04-14T19:29:19.273Z,46.44
2018-04-14T19:31:46.824Z,46.73
2018-04-14T19:34:14.988Z,46.82
2018-04-14T19:36:42.696Z,46.88
2018-04-14T19:39:10.416Z,47.10
2018-04-14T19:41:37.960Z,47.23
2018-04-14T19:44:05.503Z,47.66
2018-04-14T19:46:33.112Z,47.51
2018-04-14T19:49:00.617Z,47.54
2018-04-14T19:51:28.173Z,47.73
2018-04-14T19:53:55.737Z,48.12
2018-04-14T19:56:23.265Z,48.52
2018-04-14T19:58:50.726Z,48.71
2018-04-14T20:01:18.210Z,49.10
2018-04-14T20:03:45.742Z,49.55
2018-04-14T20:06:13.285Z,49.38
2018-04-14T20:08:40.917Z,49.51
2018-04-14T20:11:08.418Z,49.32
2018-04-14T20:13:35.963Z,49.14
2018-04-14T20:16:03.535Z,48.81
2018-04-14T20:18:31.109Z,49.04
2018-04-14T20:20:58.584Z,49.55
2018-04-14T20:23:26.120Z,49.72
2018-04-14T20:25:53.575Z,49.66
2018-04-14T20:28:21.106Z,49.75
2018-04-14T20:30:48.567Z,49.84
2018-04-14T20:33:16.101Z,49.92
2018-04-14T20:35:43.636Z,50.17
2018-04-14T20:38:11.188Z,50.18
2018-04-14T20:40:38.671Z,49.97
2018-04-14T20:43:06.152Z,49.84
2018-04-14T20:45:33.744Z,49.95
2018-04-14T20:48:01.269Z,50.05
2018-04-14T20:50:28.740Z,49.95
2018-04-14T20:53:16.335Z,50.25
2018-04-14T20:55:43.858Z,50.22
2018-04-14T20:58:11.306Z,50.34
2018-04-14T21:00:38.841Z,50.39
2018-04-14T21:03:16.011Z,50.51
2018-04-14T21:05:43.578Z,50.77
2018-04-14T21:08:11.135Z,51.25
2018-04-14T21:10:38.595Z,50.80
2018-04-14T21:13:06.112Z,50.86
2018-04-14T21:15:33.596Z,50.93
2018-04-14T21:18:01.139Z,50.99
2018-04-14T21:20:28.604Z,51.17
2018-04-14T21:23:05.733Z,51.23
2018-04-14T21:25:33.253Z,51.19
2018-04-14T21:28:00.746Z,51.51
2018-04-14T21:30:28.210Z,51.96
2018-04-14T21:32:55.704Z,51.76
2018-04-14T21:35:23.206Z,51.98
2018-04-14T21:37:51.006Z,52.42
2018-04-14T21:40:19.115Z,52.53
2018-04-14T21:42:46.683Z,52.83
2018-04-14T21:45:15.805Z,52.94
2018-04-14T21:47:43.423Z,52.98
2018-04-14T21:50:10.995Z,52.86
2018-04-14T21:52:38.561Z,53.10
2018-04-14T21:55:06.027Z,53.14
2018-04-14T21:57:33.530Z,53.30
2018-04-14T22:00:01.085Z,53.17
2018-04-14T22:02:28.642Z,53.31
2018-04-14T22:04:56.111Z,53.62
2018-04-14T22:07:23.565Z,53.82
2018-04-14T22:09:51.067Z,53.91
2018-04-14T22:12:18.533Z,54.22
2018-04-14T22:14:46.026Z,54.49
2018-04-14T22:17:13.522Z,54.24
2018-04-14T22:19:41.087Z,53.11
2018-04-14T22:22:08.605Z,53.04
2018-04-14T22:24:36.366Z,52.74
2018-04-14T22:27:03.828Z,52.43
2018-04-14T22:29:31.898Z,52.28
2018-04-14T22:32:00.280Z,52.01
2018-04-14T22:34:27.760Z,51.90
2018-04-14T22:36:55.225Z,51.71
2018-04-14T22:39:22.719Z,51.13
2018-04-14T22:41:50.549Z,51.13
2018-04-14T22:44:18.481Z,51.29
2018-04-14T22:46:45.955Z,51.44
2018-04-14T22:49:13.418Z,51.43
2018-04-14T22:51:40.928Z,51.31
2018-04-14T22:54:08.413Z,51.25
2018-04-14T22:56:35.923Z,51.33
2018-04-14T22:59:03.501Z,51.33
2018-04-14T23:01:30.989Z,51.29
2018-04-14T23:03:58.461Z,51.33
2018-04-14T23:06:25.970Z,51.66
2018-04-14T23:08:54.425Z,51.83
2018-04-14T23:11:23.668Z,51.97
2018-04-14T23:13:51.185Z,52.03
2018-04-14T23:16:18.725Z,52.04
2018-04-14T23:18:46.259Z,52.04
2018-04-14T23:21:13.825Z,52.20
2018-04-14T23:23:41.371Z,52.02
2018-04-14T23:26:08.930Z,52.06
2018-04-14T23:28:37.043Z,51.77
2018-04-14T23:31:04.629Z,52.01
2018-04-14T23:33:37.052Z,51.68
2018-04-14T23:36:04.513Z,51.71
2018-04-14T23:38:31.963Z,52.14
2018-04-14T23:40:59.514Z,52.63
2018-04-14T23:43:26.980Z,52.87
2018-04-14T23:45:54.450Z,53.18
2018-04-14T23:48:21.930Z,53.31
2018-04-14T23:50:49.441Z,53.76
2018-04-14T23:53:16.982Z,54.11
2018-04-14T23:55:45.275Z,54.03
2018-04-14T23:58:13.210Z,54.26
